Time;durP1;ratioP1;P1;durP2;ratioP2;P2;SDS_P1;SDS_P2;PMS_P1;PMS_P2;Temp;Humidity;BMP_temperature;BMP_pressure;BME280_temperature;BME280_humidity;BME280_pressure;Samples;Min_cycle;Max_cycle;Signal;HPM_P1;HPM_P2
2023/12/17 00:00:07;;;;;;;3.53;3.10;;;9.20;99.90;;;;;;5129351;27;20255;-63
2023/12/17 00:02:36;;;;;;;2.90;2.70;;;9.20;99.90;;;;;;5128929;27;20203;-63
2023/12/17 00:05:07;;;;;;;4.43;3.13;;;9.10;99.90;;;;;;5129243;27;20609;-63
2023/12/17 00:07:36;;;;;;;4.10;3.70;;;9.20;99.90;;;;;;5129603;27;20213;-63
2023/12/17 00:10:06;;;;;;;3.83;3.53;;;9.10;99.90;;;;;;5129249;27;20226;-64
2023/12/17 00:12:34;;;;;;;5.27;4.00;;;9.20;99.90;;;;;;5110471;27;20550;-61
2023/12/17 00:15:03;;;;;;;3.33;3.03;;;9.10;99.90;;;;;;5129450;27;20218;-64
2023/12/17 00:17:32;;;;;;;3.70;3.40;;;9.10;99.90;;;;;;5128940;27;20210;-62
2023/12/17 00:20:00;;;;;;;4.23;3.63;;;9.20;99.90;;;;;;5128873;27;20270;-62
2023/12/17 00:22:31;;;;;;;4.70;3.70;;;9.10;99.90;;;;;;5128633;27;20224;-62
2023/12/17 00:24:59;;;;;;;4.47;3.57;;;9.20;99.90;;;;;;5129001;27;20193;-62
2023/12/17 00:27:28;;;;;;;4.13;3.77;;;9.20;99.90;;;;;;5128430;27;20195;-63
2023/12/17 00:29:56;;;;;;;5.50;4.23;;;9.20;99.90;;;;;;5128659;27;20305;-62
2023/12/17 00:32:25;;;;;;;6.77;4.23;;;9.20;99.90;;;;;;5128274;27;20213;-62
2023/12/17 00:34:53;;;;;;;4.20;3.90;;;9.30;99.90;;;;;;5128476;27;20198;-62
2023/12/17 00:37:22;;;;;;;4.63;4.23;;;9.30;99.90;;;;;;5128414;28;20305;-62
2023/12/17 00:39:52;;;;;;;5.10;4.60;;;9.30;99.90;;;;;;5129329;28;20236;-62
2023/12/17 00:42:20;;;;;;;5.30;4.47;;;9.20;99.90;;;;;;5115677;27;20233;-62
2023/12/17 00:44:49;;;;;;;5.80;5.00;;;9.30;99.90;;;;;;5123735;28;20197;-62
2023/12/17 00:47:18;;;;;;;5.07;4.63;;;9.30;99.90;;;;;;5128409;28;20225;-62
2023/12/17 00:49:46;;;;;;;7.43;4.80;;;9.30;99.90;;;;;;5128237;28;20221;-63
2023/12/17 00:52:15;;;;;;;6.03;4.70;;;9.30;99.90;;;;;;5128334;28;20209;-62
2023/12/17 00:54:44;;;;;;;6.33;4.93;;;9.40;99.90;;;;;;5128182;28;20597;-61
2023/12/17 00:57:13;;;;;;;6.20;4.83;;;9.30;99.90;;;;;;5128624;27;20201;-61
2023/12/17 00:59:42;;;;;;;6.17;5.57;;;9.30;99.90;;;;;;5132410;27;20204;-62
2023/12/17 01:02:11;;;;;;;6.17;5.30;;;9.40;99.90;;;;;;5132273;27;20198;-62
2023/12/17 01:04:40;;;;;;;8.90;5.63;;;9.30;99.90;;;;;;5132657;27;20194;-62
2023/12/17 01:07:08;;;;;;;8.80;5.93;;;9.30;99.90;;;;;;5132359;27;20247;-62
2023/12/17 01:09:37;;;;;;;7.53;5.93;;;9.30;99.90;;;;;;5130807;27;20685;-63
2023/12/17 01:12:06;;;;;;;9.10;6.00;;;9.30;99.90;;;;;;5132954;27;20197;-63
2023/12/17 01:14:36;;;;;;;10.07;4.97;;;9.30;99.90;;;;;;5133060;27;20202;-62
2023/12/17 01:17:07;;;;;;;8.53;5.57;;;9.30;99.90;;;;;;5132970;27;20228;-62
2023/12/17 01:19:36;;;;;;;9.47;5.90;;;9.40;99.90;;;;;;5133102;27;20202;-62
2023/12/17 01:22:05;;;;;;;10.53;6.13;;;9.40;99.90;;;;;;5132998;27;20194;-62
2023/12/17 01:24:34;;;;;;;7.67;6.07;;;9.40;99.90;;;;;;5132781;27;20278;-63
2023/12/17 01:27:02;;;;;;;8.40;6.20;;;9.40;99.90;;;;;;5132578;27;20206;-62
2023/12/17 01:29:31;;;;;;;12.50;6.43;;;9.40;99.90;;;;;;5132764;27;20241;-62
2023/12/17 01:32:01;;;;;;;10.10;6.20;;;9.40;99.90;;;;;;5131864;27;20197;-63
2023/12/17 01:34:30;;;;;;;9.73;6.33;;;9.40;99.90;;;;;;5132528;27;20197;-63
2023/12/17 01:36:58;;;;;;;12.43;6.73;;;9.50;99.90;;;;;;5132526;27;20202;-62
2023/12/17 01:39:27;;;;;;;15.93;6.77;;;9.50;99.90;;;;;;5132486;27;20226;-63
2023/12/17 01:41:56;;;;;;;9.43;5.83;;;9.40;99.90;;;;;;5132227;27;20237;-63
2023/12/17 01:44:24;;;;;;;10.27;5.47;;;9.40;99.90;;;;;;5132453;27;20554;-62
2023/12/17 01:46:53;;;;;;;9.83;6.77;;;9.40;99.90;;;;;;5132334;27;20190;-63
2023/12/17 01:49:23;;;;;;;9.80;6.17;;;9.30;99.90;;;;;;5131960;27;20270;-62
2023/12/17 01:51:51;;;;;;;11.70;6.10;;;9.40;99.90;;;;;;5132115;27;20654;-61
2023/12/17 01:54:20;;;;;;;12.60;5.87;;;9.40;99.90;;;;;;5131993;27;20202;-63
2023/12/17 01:56:49;;;;;;;12.10;6.30;;;9.40;99.90;;;;;;5131944;27;20202;-62
2023/12/17 01:59:18;;;;;;;10.37;5.70;;;9.50;99.90;;;;;;5132197;27;20562;-63
2023/12/17 02:01:48;;;;;;;12.23;6.23;;;9.50;99.90;;;;;;5132024;27;20672;-63
2023/12/17 02:04:18;;;;;;;11.13;6.17;;;9.50;99.90;;;;;;5131663;27;20202;-63
2023/12/17 02:06:48;;;;;;;10.07;6.17;;;9.50;99.90;;;;;;5131867;27;20199;-63
2023/12/17 02:09:17;;;;;;;8.93;6.07;;;9.50;99.90;;;;;;5131536;27;20226;-64
2023/12/17 02:11:46;;;;;;;15.83;5.57;;;9.50;99.90;;;;;;5131889;27;20212;-63
2023/12/17 02:14:14;;;;;;;7.93;5.73;;;9.50;99.90;;;;;;5131928;27;20201;-62
2023/12/17 02:16:43;;;;;;;11.27;5.83;;;9.50;99.90;;;;;;5131775;27;20290;-63
2023/12/17 02:19:12;;;;;;;10.37;6.13;;;9.60;99.90;;;;;;5131484;27;20672;-63
2023/12/17 02:21:40;;;;;;;6.63;4.63;;;9.60;99.90;;;;;;5131721;27;20263;-63
2023/12/17 02:24:12;;;;;;;7.00;5.07;;;9.60;99.90;;;;;;5132039;27;20210;-63
2023/12/17 02:26:42;;;;;;;5.93;5.20;;;9.60;99.90;;;;;;5131999;27;20741;-62
2023/12/17 02:29:11;;;;;;;10.20;6.60;;;9.60;99.90;;;;;;5131553;27;20929;-62
2023/12/17 02:31:39;;;;;;;15.80;5.90;;;9.70;99.90;;;;;;5131578;27;20676;-62
2023/12/17 02:34:08;;;;;;;12.90;5.30;;;9.70;99.90;;;;;;5131495;27;20212;-63
2023/12/17 02:36:37;;;;;;;12.00;5.60;;;9.70;99.90;;;;;;5131251;27;20194;-64
2023/12/17 02:39:08;;;;;;;10.63;5.87;;;9.70;99.90;;;;;;5131217;27;20195;-62
2023/12/17 02:41:38;;;;;;;10.43;4.90;;;9.60;99.90;;;;;;5121872;27;20304;-64
2023/12/17 02:44:07;;;;;;;9.97;4.93;;;9.60;99.90;;;;;;5119742;27;20218;-62
2023/12/17 02:46:36;;;;;;;9.97;4.67;;;9.70;99.90;;;;;;5110445;28;20290;-65
2023/12/17 02:49:04;;;;;;;9.67;5.97;;;9.70;99.90;;;;;;5112612;27;20268;-63
2023/12/17 02:51:33;;;;;;;9.13;4.80;;;9.60;99.90;;;;;;5131036;27;20222;-63
2023/12/17 02:54:02;;;;;;;8.83;5.03;;;9.60;99.90;;;;;;5131107;27;20224;-62
2023/12/17 02:56:30;;;;;;;10.57;5.17;;;9.70;99.90;;;;;;5130872;27;20206;-62
2023/12/17 02:59:00;;;;;;;8.70;4.80;;;9.70;99.90;;;;;;5130820;27;20622;-62
2023/12/17 03:01:29;;;;;;;10.13;5.17;;;9.70;99.90;;;;;;5130794;27;20198;-63
2023/12/17 03:03:58;;;;;;;10.97;4.87;;;9.70;99.90;;;;;;5130613;27;20207;-63
2023/12/17 03:06:26;;;;;;;12.47;5.03;;;9.70;99.90;;;;;;5130757;27;20196;-61
2023/12/17 03:08:55;;;;;;;8.43;4.50;;;9.70;99.90;;;;;;5130707;27;20251;-64
2023/12/17 03:11:24;;;;;;;8.20;4.30;;;9.70;99.90;;;;;;5130531;27;20234;-63
2023/12/17 03:13:52;;;;;;;20.03;12.97;;;9.70;99.90;;;;;;5130469;27;20202;-63
2023/12/17 03:16:23;;;;;;;12.30;5.57;;;9.70;99.90;;;;;;5130260;27;20209;-64
2023/12/17 03:18:52;;;;;;;10.00;4.87;;;9.70;99.90;;;;;;5130140;27;20210;-62
2023/12/17 03:21:23;;;;;;;7.60;5.07;;;9.60;99.90;;;;;;5129901;27;20745;-62
2023/12/17 03:23:51;;;;;;;9.70;4.67;;;9.70;99.90;;;;;;5130373;27;20251;-61
2023/12/17 03:26:20;;;;;;;10.60;5.40;;;9.70;99.90;;;;;;5130347;27;20210;-62
2023/12/17 03:28:49;;;;;;;8.83;4.80;;;9.80;99.90;;;;;;5130175;27;20197;-63
2023/12/17 03:31:17;;;;;;;11.47;5.60;;;9.70;99.90;;;;;;5111794;27;20332;-62
2023/12/17 03:33:48;;;;;;;12.13;5.87;;;9.60;99.90;;;;;;5130353;27;20651;-63
2023/12/17 03:36:17;;;;;;;13.27;5.80;;;9.60;99.90;;;;;;5121410;27;20555;-62
2023/12/17 03:38:47;;;;;;;11.27;5.17;;;9.60;99.90;;;;;;5125495;27;20221;-62
2023/12/17 03:41:22;;;;;;;11.23;5.60;;;9.60;99.90;;;;;;5109564;28;20234;-62
2023/12/17 03:43:52;;;;;;;9.23;4.93;;;9.60;99.90;;;;;;5109469;28;20223;-62
2023/12/17 03:46:21;;;;;;;11.40;5.47;;;9.70;99.90;;;;;;5109661;28;20638;-62
2023/12/17 03:48:52;;;;;;;6.87;4.90;;;9.60;99.90;;;;;;5109688;28;20222;-62
2023/12/17 03:51:21;;;;;;;11.27;5.40;;;9.50;99.90;;;;;;5109388;28;20246;-62
2023/12/17 03:53:50;;;;;;;8.93;5.37;;;9.50;99.90;;;;;;5109434;28;20204;-61
2023/12/17 03:56:22;;;;;;;8.47;4.93;;;9.60;99.90;;;;;;5109236;28;20196;-62
2023/12/17 03:58:51;;;;;;;11.57;5.80;;;9.60;99.90;;;;;;5109093;28;20247;-61
2023/12/17 04:01:19;;;;;;;12.30;5.33;;;9.60;99.90;;;;;;5109620;28;20633;-62
2023/12/17 04:03:48;;;;;;;10.83;5.47;;;9.60;99.90;;;;;;5109199;28;20196;-63
2023/12/17 04:06:18;;;;;;;7.07;5.90;;;9.60;99.90;;;;;;5108943;28;20684;-63
2023/12/17 04:08:46;;;;;;;10.93;5.70;;;9.60;99.90;;;;;;5108739;28;20196;-61
2023/12/17 04:11:15;;;;;;;10.17;5.53;;;9.50;99.90;;;;;;5116536;27;20224;-62
2023/12/17 04:13:44;;;;;;;10.37;5.43;;;9.50;99.90;;;;;;5129669;27;20534;-62
2023/12/17 04:16:13;;;;;;;8.73;5.13;;;9.50;99.90;;;;;;5130239;27;20195;-63
2023/12/17 04:18:41;;;;;;;7.50;5.20;;;9.60;99.90;;;;;;5129498;27;20193;-63
2023/12/17 04:21:10;;;;;;;9.60;5.60;;;9.50;99.90;;;;;;5130322;27;20658;-61
2023/12/17 04:23:40;;;;;;;6.80;5.10;;;9.40;99.90;;;;;;5127835;27;20194;-63
2023/12/17 04:26:09;;;;;;;7.90;5.00;;;9.40;99.90;;;;;;5112615;27;20575;-62
2023/12/17 04:28:38;;;;;;;7.60;5.13;;;9.40;99.90;;;;;;5129237;27;20219;-61
2023/12/17 04:31:07;;;;;;;8.57;5.17;;;9.30;99.90;;;;;;5129129;27;20229;-61
2023/12/17 04:33:35;;;;;;;10.07;5.40;;;9.30;99.90;;;;;;5129196;27;20309;-62
2023/12/17 04:36:05;;;;;;;6.30;4.93;;;9.40;99.90;;;;;;5129240;28;20252;-62
2023/12/17 04:38:33;;;;;;;7.77;4.80;;;9.30;99.90;;;;;;5129077;28;20190;-63
2023/12/17 04:41:03;;;;;;;5.67;5.10;;;9.30;99.90;;;;;;5129170;28;20733;-61
2023/12/17 04:43:32;;;;;;;8.63;5.23;;;9.30;99.90;;;;;;5129058;28;20195;-61
2023/12/17 04:46:00;;;;;;;6.67;5.40;;;9.30;99.90;;;;;;5129486;28;20294;-62
2023/12/17 04:48:29;;;;;;;9.20;5.73;;;9.20;99.90;;;;;;5128899;28;20193;-62
2023/12/17 04:50:58;;;;;;;7.83;5.77;;;9.30;99.90;;;;;;5129180;28;20226;-62
2023/12/17 04:53:26;;;;;;;11.40;5.87;;;9.20;99.90;;;;;;5110425;28;20974;-62
2023/12/17 04:55:55;;;;;;;9.50;6.13;;;9.30;99.90;;;;;;5128908;28;20280;-61
2023/12/17 04:58:26;;;;;;;14.03;6.93;;;9.30;99.90;;;;;;5127840;28;20213;-61
2023/12/17 05:00:58;;;;;;;11.97;5.80;;;9.30;99.90;;;;;;5128934;27;20207;-61
2023/12/17 05:03:27;;;;;;;8.13;5.70;;;9.20;99.90;;;;;;5128669;27;20202;-61
2023/12/17 05:05:56;;;;;;;12.07;5.37;;;9.20;99.90;;;;;;5129037;28;20318;-61
2023/12/17 05:08:25;;;;;;;5.23;4.63;;;9.20;99.90;;;;;;5128825;28;20731;-62
2023/12/17 05:10:53;;;;;;;7.30;4.40;;;9.20;99.90;;;;;;5126746;27;20222;-61
2023/12/17 05:13:23;;;;;;;6.90;4.73;;;9.30;99.90;;;;;;5122946;27;20298;-63
2023/12/17 05:15:52;;;;;;;4.87;3.77;;;9.30;99.90;;;;;;5111084;27;20211;-62
2023/12/17 05:18:21;;;;;;;5.20;4.27;;;9.40;99.90;;;;;;5124708;28;20200;-63
2023/12/17 05:20:49;;;;;;;7.60;4.47;;;9.30;99.90;;;;;;5128609;28;20193;-61
2023/12/17 05:23:18;;;;;;;5.90;3.97;;;9.40;99.90;;;;;;5128553;28;20248;-61
2023/12/17 05:25:47;;;;;;;4.10;3.23;;;9.40;99.90;;;;;;5128864;28;20284;-61
2023/12/17 05:28:15;;;;;;;3.63;3.33;;;9.30;99.90;;;;;;5128360;28;20660;-63
2023/12/17 05:30:46;;;;;;;8.47;3.67;;;9.30;99.90;;;;;;5128763;28;20193;-62
2023/12/17 05:33:15;;;;;;;4.20;3.77;;;9.30;99.90;;;;;;5128318;28;20291;-62
2023/12/17 05:35:44;;;;;;;5.37;3.77;;;9.30;99.90;;;;;;5129138;28;20624;-62
2023/12/17 05:38:12;;;;;;;5.70;3.57;;;9.30;99.90;;;;;;5128552;28;20200;-61
2023/12/17 05:40:41;;;;;;;6.10;3.67;;;9.40;99.90;;;;;;5128408;28;20231;-63
2023/12/17 05:43:10;;;;;;;4.73;3.47;;;9.30;99.90;;;;;;5128547;27;20338;-60
2023/12/17 05:45:39;;;;;;;4.07;3.63;;;9.30;99.90;;;;;;5132593;27;20224;-62
2023/12/17 05:48:16;;;;;;;4.30;3.90;;;9.30;99.90;;;;;;5132141;27;20204;-63
2023/12/17 05:50:46;;;;;;;7.17;3.70;;;9.30;99.90;;;;;;5132212;27;20193;-62
2023/12/17 05:53:15;;;;;;;6.57;3.60;;;9.30;99.90;;;;;;5132030;27;20233;-61
2023/12/17 05:55:44;;;;;;;7.43;4.00;;;9.30;99.90;;;;;;5132070;27;20200;-63
2023/12/17 05:58:13;;;;;;;5.47;3.60;;;9.40;99.90;;;;;;5131612;27;20209;-63
2023/12/17 06:00:42;;;;;;;4.00;3.60;;;9.40;99.90;;;;;;5131978;27;20570;-63
2023/12/17 06:03:10;;;;;;;4.90;3.57;;;9.40;99.90;;;;;;5131657;27;20231;-61
2023/12/17 06:05:40;;;;;;;6.63;3.57;;;9.40;99.90;;;;;;5130689;27;20241;-62
2023/12/17 06:08:09;;;;;;;5.57;3.60;;;9.40;99.90;;;;;;5111349;28;20197;-62
2023/12/17 06:10:38;;;;;;;3.27;3.03;;;9.50;99.90;;;;;;5111399;28;20199;-62
2023/12/17 06:13:06;;;;;;;5.57;3.80;;;9.50;99.90;;;;;;5111281;28;20223;-61
2023/12/17 06:15:35;;;;;;;4.53;3.60;;;9.40;99.90;;;;;;5111271;28;20204;-61
2023/12/17 06:18:03;;;;;;;4.30;3.50;;;9.40;99.90;;;;;;5111232;28;20192;-62
2023/12/17 06:20:32;;;;;;;5.73;3.30;;;9.40;99.90;;;;;;5111150;28;20199;-60
2023/12/17 06:23:02;;;;;;;4.87;3.60;;;9.30;99.90;;;;;;5110994;28;20260;-61
2023/12/17 06:25:31;;;;;;;3.50;3.20;;;9.40;99.90;;;;;;5110485;28;20935;-61
2023/12/17 06:27:59;;;;;;;5.00;3.30;;;9.40;99.90;;;;;;5111664;27;20299;-62
2023/12/17 06:30:28;;;;;;;5.50;3.03;;;9.50;99.90;;;;;;5127355;27;20317;-63
2023/12/17 06:32:57;;;;;;;3.70;2.87;;;9.40;99.90;;;;;;5127585;27;20222;-64
2023/12/17 06:35:25;;;;;;;3.60;3.30;;;9.50;99.90;;;;;;5130982;27;20282;-62
2023/12/17 06:37:54;;;;;;;3.93;3.30;;;9.50;99.90;;;;;;5129080;27;20256;-62
2023/12/17 06:40:24;;;;;;;4.23;3.63;;;9.40;99.90;;;;;;5130543;27;20194;-62
2023/12/17 06:42:53;;;;;;;4.00;3.40;;;9.40;99.90;;;;;;5124886;27;20206;-61
2023/12/17 06:45:21;;;;;;;5.13;3.87;;;9.40;99.90;;;;;;5130858;27;20237;-63
2023/12/17 06:47:50;;;;;;;4.70;3.20;;;9.50;99.90;;;;;;5131325;27;20200;-63
2023/12/17 06:50:19;;;;;;;3.77;3.47;;;9.50;99.90;;;;;;5131336;27;20206;-64
2023/12/17 06:52:47;;;;;;;4.10;3.30;;;9.50;99.90;;;;;;5131345;27;20344;-63
2023/12/17 06:55:16;;;;;;;5.13;3.60;;;9.50;99.90;;;;;;5129267;27;20686;-64
2023/12/17 06:57:47;;;;;;;3.63;3.33;;;9.50;99.90;;;;;;5130605;27;20251;-63
2023/12/17 07:00:17;;;;;;;4.20;3.17;;;9.50;99.90;;;;;;5131162;27;20219;-63
2023/12/17 07:02:46;;;;;;;3.60;3.30;;;9.50;99.90;;;;;;5130704;27;20222;-64
2023/12/17 07:05:14;;;;;;;5.00;3.80;;;9.50;99.90;;;;;;5130613;27;20203;-62
2023/12/17 07:07:44;;;;;;;3.47;3.27;;;9.50;99.90;;;;;;5130773;27;20338;-65
2023/12/17 07:10:13;;;;;;;3.47;3.17;;;9.40;99.90;;;;;;5130765;27;20191;-65
2023/12/17 07:12:41;;;;;;;3.50;3.20;;;9.50;99.90;;;;;;5130708;27;20334;-63
2023/12/17 07:15:12;;;;;;;3.37;3.07;;;9.40;99.90;;;;;;5130559;27;20254;-64
2023/12/17 07:17:40;;;;;;;3.23;2.97;;;9.40;99.90;;;;;;5130676;27;20191;-65
2023/12/17 07:20:10;;;;;;;3.13;2.70;;;9.40;99.90;;;;;;5130806;27;20187;-65
2023/12/17 07:22:39;;;;;;;3.37;3.10;;;9.50;99.90;;;;;;5129492;27;20262;-65
2023/12/17 07:25:09;;;;;;;3.80;3.40;;;9.50;99.90;;;;;;5131087;27;20201;-65
2023/12/17 07:27:37;;;;;;;4.00;3.60;;;9.50;99.90;;;;;;5130545;27;20202;-64
2023/12/17 07:30:07;;;;;;;3.30;3.00;;;9.60;99.90;;;;;;5130157;27;20198;-64
2023/12/17 07:32:37;;;;;;;4.23;3.33;;;9.50;99.90;;;;;;5130124;27;20572;-63
2023/12/17 07:35:08;;;;;;;4.40;3.30;;;9.50;99.90;;;;;;5130546;27;20202;-65
2023/12/17 07:37:37;;;;;;;5.03;3.40;;;9.50;99.90;;;;;;5130259;27;20618;-65
2023/12/17 07:40:06;;;;;;;3.80;3.40;;;9.60;99.90;;;;;;5130158;27;20206;-62
2023/12/17 07:42:35;;;;;;;3.97;3.57;;;9.50;99.90;;;;;;5129844;27;20287;-64
2023/12/17 07:45:05;;;;;;;4.43;3.47;;;9.50;99.90;;;;;;5129851;27;20334;-61
2023/12/17 07:47:33;;;;;;;5.97;3.47;;;9.50;99.90;;;;;;5128719;27;20300;-64
2023/12/17 07:50:04;;;;;;;6.20;3.77;;;9.40;99.90;;;;;;5130666;27;20290;-62
2023/12/17 07:52:33;;;;;;;5.30;4.30;;;9.40;99.90;;;;;;5130084;27;20225;-65
2023/12/17 07:55:01;;;;;;;4.60;4.20;;;9.40;99.90;;;;;;5129899;27;20198;-63
2023/12/17 07:57:30;;;;;;;3.13;2.93;;;9.60;99.90;;;;;;5129925;27;20194;-65
2023/12/17 07:59:58;;;;;;;7.10;4.57;;;9.50;99.90;;;;;;5129694;27;20187;-65
2023/12/17 08:02:27;;;;;;;7.73;6.37;;;9.50;99.90;;;;;;5129589;27;20234;-65
2023/12/17 08:04:56;;;;;;;5.80;4.03;;;9.50;99.90;;;;;;5129694;27;20191;-66
2023/12/17 08:07:26;;;;;;;5.57;4.17;;;9.60;99.90;;;;;;5110770;27;20210;-64
2023/12/17 08:09:54;;;;;;;4.97;4.10;;;9.50;99.90;;;;;;5129744;27;20194;-63
2023/12/17 08:12:23;;;;;;;5.57;4.00;;;9.50;99.90;;;;;;5127836;27;20202;-61
2023/12/17 08:14:51;;;;;;;5.67;4.40;;;9.40;99.90;;;;;;5130136;27;20198;-65
2023/12/17 08:17:20;;;;;;;4.73;4.27;;;9.50;99.90;;;;;;5129924;27;20209;-65
2023/12/17 08:19:49;;;;;;;4.67;4.17;;;9.60;99.90;;;;;;5130078;27;20226;-65
2023/12/17 08:22:18;;;;;;;3.83;3.50;;;9.50;99.90;;;;;;5130013;27;20309;-64
2023/12/17 08:24:48;;;;;;;4.40;4.00;;;9.50;99.90;;;;;;5129902;27;20255;-64
2023/12/17 08:27:16;;;;;;;5.00;4.33;;;9.50;99.90;;;;;;5129958;27;20197;-65
2023/12/17 08:29:47;;;;;;;5.57;4.03;;;9.60;99.90;;;;;;5129862;27;20198;-65
2023/12/17 08:32:17;;;;;;;4.27;3.87;;;9.60;99.90;;;;;;5129840;27;20221;-64
2023/12/17 08:34:46;;;;;;;4.80;4.00;;;9.60;99.90;;;;;;5130005;27;20187;-65
2023/12/17 08:37:14;;;;;;;5.70;4.23;;;9.70;99.90;;;;;;5109940;28;20611;-65
2023/12/17 08:39:43;;;;;;;7.67;4.23;;;9.70;99.90;;;;;;5130026;28;20290;-66
2023/12/17 08:42:13;;;;;;;5.57;3.70;;;9.70;99.90;;;;;;5130003;28;20229;-65
2023/12/17 08:44:42;;;;;;;7.03;4.20;;;9.70;99.90;;;;;;5129605;28;20271;-63
2023/12/17 08:47:10;;;;;;;5.13;4.27;;;9.60;99.90;;;;;;5129840;28;20204;-65
2023/12/17 08:49:39;;;;;;;5.10;4.20;;;9.70;99.90;;;;;;5129849;28;20200;-65
2023/12/17 08:52:08;;;;;;;5.63;4.37;;;9.70;99.90;;;;;;5129787;28;20209;-66
2023/12/17 08:54:36;;;;;;;5.23;4.40;;;9.70;99.90;;;;;;5129717;28;20236;-65
2023/12/17 08:57:05;;;;;;;6.67;4.00;;;9.70;99.90;;;;;;5129680;28;20202;-62
2023/12/17 08:59:35;;;;;;;7.10;4.23;;;9.70;99.90;;;;;;5129508;28;20254;-64
2023/12/17 09:02:04;;;;;;;4.63;3.63;;;9.80;99.90;;;;;;5128916;28;20744;-65
2023/12/17 09:04:33;;;;;;;5.43;4.53;;;9.70;99.90;;;;;;5129234;28;20251;-64
2023/12/17 09:07:01;;;;;;;6.40;4.30;;;9.70;99.90;;;;;;5130159;28;20194;-65
2023/12/17 09:09:30;;;;;;;5.20;4.47;;;9.70;99.90;;;;;;5129527;28;20312;-64
2023/12/17 09:11:59;;;;;;;5.03;4.50;;;9.70;99.90;;;;;;5129639;28;20201;-64
2023/12/17 09:14:27;;;;;;;7.90;4.67;;;9.70;99.90;;;;;;5129505;28;20302;-64
2023/12/17 09:16:57;;;;;;;5.83;5.13;;;9.80;99.90;;;;;;5129578;28;20201;-64
2023/12/17 09:19:26;;;;;;;5.33;4.40;;;9.70;99.90;;;;;;5132101;27;20739;-63
2023/12/17 09:21:55;;;;;;;4.83;4.43;;;9.70;99.90;;;;;;5133749;27;20188;-63
2023/12/17 09:24:23;;;;;;;5.03;4.50;;;9.60;99.90;;;;;;5133629;27;20199;-65
2023/12/17 09:26:52;;;;;;;4.83;4.27;;;9.60;99.90;;;;;;5133670;27;20655;-65
2023/12/17 09:29:21;;;;;;;6.50;4.50;;;9.60;99.90;;;;;;5132278;27;20201;-65
2023/12/17 09:31:50;;;;;;;5.30;4.80;;;9.60;99.90;;;;;;5134082;27;20250;-64
2023/12/17 09:34:20;;;;;;;4.53;4.13;;;9.60;99.90;;;;;;5133181;27;20246;-63
2023/12/17 09:36:49;;;;;;;4.63;4.23;;;9.70;99.90;;;;;;5133515;27;20199;-64
2023/12/17 09:39:18;;;;;;;4.20;3.80;;;9.60;99.90;;;;;;5133303;27;20562;-62
2023/12/17 09:41:46;;;;;;;4.70;4.20;;;9.70;99.90;;;;;;5133189;27;20235;-64
2023/12/17 09:44:15;;;;;;;5.70;5.03;;;9.70;99.90;;;;;;5133159;27;20203;-63
2023/12/17 09:46:43;;;;;;;6.73;4.70;;;9.70;99.90;;;;;;5133157;27;20225;-64
2023/12/17 09:49:12;;;;;;;6.17;4.63;;;9.80;99.90;;;;;;5133309;27;20195;-61
2023/12/17 09:51:46;;;;;;;7.23;4.90;;;9.90;99.90;;;;;;5133242;27;20198;-64
2023/12/17 09:54:15;;;;;;;4.30;3.90;;;9.90;99.90;;;;;;5131249;27;20226;-64
2023/12/17 09:56:47;;;;;;;4.53;3.80;;;9.80;99.90;;;;;;5133585;27;20285;-62
2023/12/17 09:59:16;;;;;;;6.20;4.13;;;9.80;99.90;;;;;;5132900;27;20207;-64
2023/12/17 10:01:45;;;;;;;4.30;3.90;;;9.80;99.90;;;;;;5113792;27;20313;-64
2023/12/17 10:04:13;;;;;;;4.03;3.63;;;9.90;99.90;;;;;;5132441;27;20223;-65
2023/12/17 10:06:44;;;;;;;5.43;4.57;;;9.90;99.90;;;;;;5132720;27;20642;-64
2023/12/17 10:09:16;;;;;;;4.37;3.93;;;9.90;99.90;;;;;;5132547;27;20195;-64
2023/12/17 10:11:45;;;;;;;5.33;4.47;;;9.90;99.90;;;;;;5132587;27;20660;-64
2023/12/17 10:14:23;;;;;;;5.00;4.47;;;9.90;99.90;;;;;;5132231;27;20333;-63
2023/12/17 10:16:52;;;;;;;6.83;5.00;;;9.90;99.90;;;;;;5132250;27;20203;-63
2023/12/17 10:19:20;;;;;;;7.97;4.80;;;10.00;99.90;;;;;;5130938;27;20250;-62
2023/12/17 10:21:52;;;;;;;5.97;5.47;;;9.90;99.90;;;;;;5133124;27;20279;-63
2023/12/17 10:24:34;;;;;;;6.80;5.03;;;9.90;99.90;;;;;;5132447;27;20213;-62
2023/12/17 10:27:07;;;;;;;7.13;5.77;;;10.00;99.90;;;;;;5132148;27;20194;-62
2023/12/17 10:29:36;;;;;;;7.87;5.17;;;10.00;99.90;;;;;;5132155;27;20274;-63
2023/12/17 10:32:06;;;;;;;6.57;5.70;;;10.00;99.90;;;;;;5131480;27;20199;-63
2023/12/17 10:34:37;;;;;;;7.97;5.40;;;10.00;99.90;;;;;;5131899;27;20226;-63
2023/12/17 10:37:08;;;;;;;7.60;6.17;;;9.90;99.90;;;;;;5131988;27;20537;-64
2023/12/17 10:39:37;;;;;;;7.03;5.93;;;9.90;99.90;;;;;;5131999;27;20598;-63
2023/12/17 10:42:07;;;;;;;6.67;5.47;;;9.90;99.90;;;;;;5131958;27;20744;-64
2023/12/17 10:44:37;;;;;;;8.37;6.20;;;10.00;99.90;;;;;;5130351;27;20270;-64
2023/12/17 10:47:06;;;;;;;6.50;5.80;;;9.90;99.90;;;;;;5132461;27;20907;-65
2023/12/17 10:49:35;;;;;;;5.90;5.30;;;9.90;99.90;;;;;;5131945;27;20281;-64
2023/12/17 10:52:04;;;;;;;6.27;5.43;;;9.80;99.90;;;;;;5131766;27;20796;-64
2023/12/17 10:54:35;;;;;;;21.17;12.03;;;9.90;99.90;;;;;;5131626;27;20703;-65
2023/12/17 10:57:05;;;;;;;8.27;6.43;;;10.00;99.90;;;;;;5131780;27;20202;-62
2023/12/17 10:59:36;;;;;;;8.40;5.47;;;10.00;99.90;;;;;;5112848;27;20206;-65
2023/12/17 11:02:10;;;;;;;6.97;4.90;;;10.00;99.90;;;;;;5131477;27;20198;-65
2023/12/17 11:04:45;;;;;;;8.80;5.60;;;9.90;99.90;;;;;;5131571;27;20302;-63
2023/12/17 11:07:18;;;;;;;6.17;5.10;;;10.00;99.90;;;;;;5131610;27;20221;-64
2023/12/17 11:09:52;;;;;;;8.03;5.73;;;9.90;99.90;;;;;;5129975;27;20676;-63
2023/12/17 11:12:21;;;;;;;7.67;5.27;;;9.90;99.90;;;;;;5132053;27;20202;-64
2023/12/17 11:14:49;;;;;;;8.70;5.63;;;9.90;99.90;;;;;;5131512;27;20221;-64
2023/12/17 11:17:18;;;;;;;9.13;5.20;;;9.90;99.90;;;;;;5131229;27;20204;-65
2023/12/17 11:19:55;;;;;;;8.20;5.60;;;9.80;99.90;;;;;;5131356;27;20591;-64
2023/12/17 11:22:25;;;;;;;7.53;5.50;;;9.90;99.90;;;;;;5131398;27;20212;-63
2023/12/17 11:24:56;;;;;;;7.67;5.83;;;9.90;99.90;;;;;;5131104;27;20210;-64
2023/12/17 11:27:26;;;;;;;6.70;5.97;;;9.90;99.90;;;;;;5131219;27;20716;-64
2023/12/17 11:29:56;;;;;;;6.87;6.23;;;9.80;99.90;;;;;;5130917;27;20659;-63
2023/12/17 11:32:27;;;;;;;10.13;5.87;;;9.80;99.90;;;;;;5130938;27;20194;-63
2023/12/17 11:34:57;;;;;;;8.17;5.80;;;9.90;99.90;;;;;;5129671;27;20213;-62
2023/12/17 11:37:29;;;;;;;6.10;5.50;;;10.00;99.90;;;;;;5111287;28;20195;-63
2023/12/17 11:40:00;;;;;;;7.70;5.63;;;9.90;99.90;;;;;;5110537;28;20294;-63
2023/12/17 11:42:28;;;;;;;8.50;6.30;;;9.90;99.90;;;;;;5109688;28;20234;-64
2023/12/17 11:44:57;;;;;;;7.63;5.73;;;9.90;99.90;;;;;;5110729;28;20600;-64
2023/12/17 11:47:27;;;;;;;6.90;5.87;;;9.90;99.90;;;;;;5110264;28;20202;-63
2023/12/17 11:49:59;;;;;;;8.83;6.77;;;9.90;99.90;;;;;;5110528;28;20569;-65
2023/12/17 11:52:28;;;;;;;6.53;5.87;;;9.90;99.90;;;;;;5110425;28;20199;-65
2023/12/17 11:55:03;;;;;;;7.07;6.27;;;9.80;99.90;;;;;;5110033;28;20226;-62
2023/12/17 11:57:33;;;;;;;10.07;6.50;;;9.80;99.90;;;;;;5110169;28;20195;-64
2023/12/17 12:00:11;;;;;;;9.87;6.60;;;9.80;99.90;;;;;;5112690;27;20902;-64
2023/12/17 12:02:39;;;;;;;9.97;6.77;;;9.70;99.90;;;;;;5130986;27;20198;-64
2023/12/17 12:05:09;;;;;;;11.07;7.13;;;9.80;99.90;;;;;;5131035;27;20589;-64
2023/12/17 12:07:37;;;;;;;8.23;7.03;;;9.80;99.90;;;;;;5130240;27;20277;-65
2023/12/17 12:10:09;;;;;;;11.53;8.27;;;9.80;99.90;;;;;;5130413;27;20219;-64
2023/12/17 12:12:37;;;;;;;12.83;8.20;;;9.80;99.90;;;;;;5130551;27;20190;-64
2023/12/17 12:15:07;;;;;;;10.13;7.90;;;9.80;99.90;;;;;;5130135;27;20546;-64
2023/12/17 12:17:40;;;;;;;11.63;7.27;;;9.80;99.90;;;;;;5130095;27;20195;-63
2023/12/17 12:20:10;;;;;;;12.17;8.13;;;9.80;99.90;;;;;;5130301;27;20201;-63
2023/12/17 12:22:41;;;;;;;13.53;8.17;;;9.80;99.90;;;;;;5130453;27;20220;-65
2023/12/17 12:25:18;;;;;;;12.03;8.27;;;9.80;99.90;;;;;;5129278;27;20297;-64
2023/12/17 12:27:47;;;;;;;11.47;7.27;;;9.90;99.90;;;;;;5130640;27;20199;-65
2023/12/17 12:30:25;;;;;;;8.90;7.03;;;10.00;99.90;;;;;;5130379;27;20202;-64
2023/12/17 12:32:54;;;;;;;12.83;8.00;;;10.00;99.90;;;;;;5129681;27;20204;-65
2023/12/17 12:35:29;;;;;;;11.63;7.30;;;9.90;99.90;;;;;;5129972;27;20228;-66
2023/12/17 12:37:58;;;;;;;9.07;7.03;;;9.90;99.90;;;;;;5130023;27;20690;-62
2023/12/17 12:40:34;;;;;;;11.90;7.97;;;9.90;99.90;;;;;;5129870;27;20194;-65
2023/12/17 12:43:03;;;;;;;12.17;7.30;;;10.00;99.90;;;;;;5129966;28;20251;-65
2023/12/17 12:45:31;;;;;;;9.23;6.60;;;10.00;99.90;;;;;;5129923;28;20190;-65
2023/12/17 12:48:01;;;;;;;8.07;6.30;;;10.00;99.90;;;;;;5129889;28;20194;-65
2023/12/17 12:50:30;;;;;;;11.37;6.20;;;10.00;99.90;;;;;;5129017;28;20232;-62
2023/12/17 12:52:58;;;;;;;9.20;7.37;;;10.00;99.90;;;;;;5129903;27;20722;-64
2023/12/17 12:55:37;;;;;;;10.73;6.63;;;10.10;99.90;;;;;;5134461;27;20229;-64
2023/12/17 12:58:06;;;;;;;9.00;6.60;;;10.00;99.90;;;;;;5134031;27;20198;-66
2023/12/17 13:00:34;;;;;;;9.70;6.90;;;10.00;99.90;;;;;;5134165;27;20217;-64
2023/12/17 13:03:04;;;;;;;8.23;6.83;;;9.90;99.90;;;;;;5133603;27;20206;-66